sensor_id;sensor_type;location;lat;lon;timestamp;temperature;humidity
15384;DHT22;7790;53.022;12.968;2023-07-31T00:01:35;21.20;58.50
15384;DHT22;7790;53.022;12.968;2023-07-31T00:05:36;21.20;58.50
15384;DHT22;7790;53.022;12.968;2023-07-31T00:09:37;21.20;58.50
15384;DHT22;7790;53.022;12.968;2023-07-31T00:13:37;21.10;58.50
15384;DHT22;7790;53.022;12.968;2023-07-31T00:17:38;21.20;58.50
15384;DHT22;7790;53.022;12.968;2023-07-31T00:21:39;21.10;58.50
15384;DHT22;7790;53.022;12.968;2023-07-31T00:25:41;21.20;58.50
15384;DHT22;7790;53.022;12.968;2023-07-31T00:29:42;21.20;58.50
15384;DHT22;7790;53.022;12.968;2023-07-31T00:33:43;21.10;58.50
15384;DHT22;7790;53.022;12.968;2023-07-31T00:37:44;21.20;58.50
15384;DHT22;7790;53.022;12.968;2023-07-31T00:41:46;21.10;58.40
15384;DHT22;7790;53.022;12.968;2023-07-31T00:45:47;21.20;58.50
15384;DHT22;7790;53.022;12.968;2023-07-31T00:49:48;21.20;58.50
15384;DHT22;7790;53.022;12.968;2023-07-31T00:53:49;21.20;58.40
15384;DHT22;7790;53.022;12.968;2023-07-31T00:57:51;21.20;58.40
15384;DHT22;7790;53.022;12.968;2023-07-31T01:01:53;21.20;58.50
15384;DHT22;7790;53.022;12.968;2023-07-31T01:06:09;21.20;58.40
15384;DHT22;7790;53.022;12.968;2023-07-31T01:10:21;21.20;58.50
15384;DHT22;7790;53.022;12.968;2023-07-31T01:14:23;21.20;58.60
15384;DHT22;7790;53.022;12.968;2023-07-31T01:18:24;21.20;58.50
15384;DHT22;7790;53.022;12.968;2023-07-31T01:27:12;21.10;58.90
15384;DHT22;7790;53.022;12.968;2023-07-31T01:31:20;21.20;58.50
15384;DHT22;7790;53.022;12.968;2023-07-31T01:35:21;21.20;58.40
15384;DHT22;7790;53.022;12.968;2023-07-31T01:39:23;21.20;58.40
15384;DHT22;7790;53.022;12.968;2023-07-31T01:43:24;21.20;58.40
15384;DHT22;7790;53.022;12.968;2023-07-31T01:47:25;21.20;58.40
15384;DHT22;7790;53.022;12.968;2023-07-31T01:51:26;21.10;58.40
15384;DHT22;7790;53.022;12.968;2023-07-31T01:55:27;21.20;58.50
15384;DHT22;7790;53.022;12.968;2023-07-31T01:59:28;21.10;58.40
15384;DHT22;7790;53.022;12.968;2023-07-31T02:03:29;21.20;58.40
15384;DHT22;7790;53.022;12.968;2023-07-31T02:07:30;21.20;58.50
15384;DHT22;7790;53.022;12.968;2023-07-31T02:11:31;21.20;58.50
15384;DHT22;7790;53.022;12.968;2023-07-31T02:15:32;21.20;58.50
15384;DHT22;7790;53.022;12.968;2023-07-31T02:19:33;21.20;58.40
15384;DHT22;7790;53.022;12.968;2023-07-31T02:23:33;21.20;58.50
15384;DHT22;7790;53.022;12.968;2023-07-31T02:27:34;21.10;58.50
15384;DHT22;7790;53.022;12.968;2023-07-31T02:31:35;21.10;59.00
15384;DHT22;7790;53.022;12.968;2023-07-31T02:35:36;21.10;59.00
15384;DHT22;7790;53.022;12.968;2023-07-31T02:39:37;21.10;59.20
15384;DHT22;7790;53.022;12.968;2023-07-31T02:43:38;21.10;59.10
15384;DHT22;7790;53.022;12.968;2023-07-31T02:47:39;21.10;59.00
15384;DHT22;7790;53.022;12.968;2023-07-31T02:51:39;21.10;58.90
15384;DHT22;7790;53.022;12.968;2023-07-31T02:55:41;21.00;58.90
15384;DHT22;7790;53.022;12.968;2023-07-31T02:59:41;21.00;58.90
15384;DHT22;7790;53.022;12.968;2023-07-31T03:03:42;21.00;58.90
15384;DHT22;7790;53.022;12.968;2023-07-31T03:07:43;21.00;59.00
15384;DHT22;7790;53.022;12.968;2023-07-31T03:11:44;21.00;58.90
15384;DHT22;7790;53.022;12.968;2023-07-31T03:15:45;21.00;59.00
15384;DHT22;7790;53.022;12.968;2023-07-31T03:19:46;21.00;59.00
15384;DHT22;7790;53.022;12.968;2023-07-31T03:23:47;21.00;58.90
15384;DHT22;7790;53.022;12.968;2023-07-31T03:27:48;21.00;58.90
15384;DHT22;7790;53.022;12.968;2023-07-31T03:31:49;21.00;58.90
15384;DHT22;7790;53.022;12.968;2023-07-31T03:35:50;21.00;59.00
15384;DHT22;7790;53.022;12.968;2023-07-31T03:39:51;21.00;59.00
15384;DHT22;7790;53.022;12.968;2023-07-31T03:43:52;20.90;59.10
15384;DHT22;7790;53.022;12.968;2023-07-31T03:47:53;20.90;59.20
15384;DHT22;7790;53.022;12.968;2023-07-31T03:51:55;20.90;59.30
15384;DHT22;7790;53.022;12.968;2023-07-31T03:55:56;20.90;59.30
15384;DHT22;7790;53.022;12.968;2023-07-31T03:59:57;20.90;59.30
15384;DHT22;7790;53.022;12.968;2023-07-31T04:03:58;20.90;59.40
15384;DHT22;7790;53.022;12.968;2023-07-31T04:07:59;20.90;59.50
15384;DHT22;7790;53.022;12.968;2023-07-31T04:12:00;20.90;59.60
15384;DHT22;7790;53.022;12.968;2023-07-31T04:16:01;20.90;59.60
15384;DHT22;7790;53.022;12.968;2023-07-31T04:20:02;20.80;59.60
15384;DHT22;7790;53.022;12.968;2023-07-31T04:24:03;20.80;59.70
15384;DHT22;7790;53.022;12.968;2023-07-31T04:28:04;20.90;59.80
15384;DHT22;7790;53.022;12.968;2023-07-31T04:32:05;20.80;59.70
15384;DHT22;7790;53.022;12.968;2023-07-31T04:36:06;20.80;59.70
15384;DHT22;7790;53.022;12.968;2023-07-31T04:40:07;20.80;59.80
15384;DHT22;7790;53.022;12.968;2023-07-31T04:44:08;20.80;59.80
15384;DHT22;7790;53.022;12.968;2023-07-31T04:48:12;20.80;59.80
15384;DHT22;7790;53.022;12.968;2023-07-31T04:52:12;20.80;59.80
15384;DHT22;7790;53.022;12.968;2023-07-31T04:56:13;20.80;59.90
15384;DHT22;7790;53.022;12.968;2023-07-31T05:00:16;20.80;60.10
15384;DHT22;7790;53.022;12.968;2023-07-31T05:04:17;20.80;60.20
15384;DHT22;7790;53.022;12.968;2023-07-31T05:08:18;20.80;60.20
15384;DHT22;7790;53.022;12.968;2023-07-31T05:12:19;20.80;60.20
15384;DHT22;7790;53.022;12.968;2023-07-31T05:16:19;20.80;60.30
15384;DHT22;7790;53.022;12.968;2023-07-31T05:20:21;20.80;60.50
15384;DHT22;7790;53.022;12.968;2023-07-31T05:24:21;20.80;60.40
15384;DHT22;7790;53.022;12.968;2023-07-31T05:28:22;20.80;60.60
15384;DHT22;7790;53.022;12.968;2023-07-31T05:32:23;20.80;60.70
15384;DHT22;7790;53.022;12.968;2023-07-31T05:36:24;20.80;60.30
15384;DHT22;7790;53.022;12.968;2023-07-31T05:40:25;20.80;60.20
15384;DHT22;7790;53.022;12.968;2023-07-31T05:44:26;20.80;60.40
15384;DHT22;7790;53.022;12.968;2023-07-31T05:48:27;20.80;60.40
15384;DHT22;7790;53.022;12.968;2023-07-31T05:52:28;20.80;60.00
15384;DHT22;7790;53.022;12.968;2023-07-31T05:56:29;20.80;60.50
15384;DHT22;7790;53.022;12.968;2023-07-31T06:00:30;20.80;60.30
15384;DHT22;7790;53.022;12.968;2023-07-31T06:04:31;20.80;60.30
15384;DHT22;7790;53.022;12.968;2023-07-31T06:08:32;20.80;60.50
15384;DHT22;7790;53.022;12.968;2023-07-31T06:12:34;20.80;60.90
15384;DHT22;7790;53.022;12.968;2023-07-31T06:16:34;20.80;61.00
15384;DHT22;7790;53.022;12.968;2023-07-31T06:20:36;20.80;60.80
15384;DHT22;7790;53.022;12.968;2023-07-31T06:24:37;20.80;60.60
15384;DHT22;7790;53.022;12.968;2023-07-31T06:28:37;20.80;60.20
15384;DHT22;7790;53.022;12.968;2023-07-31T06:32:39;20.90;60.00
15384;DHT22;7790;53.022;12.968;2023-07-31T06:36:41;20.90;59.90
15384;DHT22;7790;53.022;12.968;2023-07-31T06:40:41;20.90;60.00
15384;DHT22;7790;53.022;12.968;2023-07-31T06:44:42;20.90;59.80
15384;DHT22;7790;53.022;12.968;2023-07-31T06:48:43;20.90;59.90
15384;DHT22;7790;53.022;12.968;2023-07-31T06:52:44;20.80;60.60
15384;DHT22;7790;53.022;12.968;2023-07-31T06:56:45;20.80;61.10
15384;DHT22;7790;53.022;12.968;2023-07-31T07:00:46;20.80;61.00
15384;DHT22;7790;53.022;12.968;2023-07-31T07:04:47;20.80;61.00
15384;DHT22;7790;53.022;12.968;2023-07-31T07:08:49;20.80;61.00
15384;DHT22;7790;53.022;12.968;2023-07-31T07:12:50;20.90;61.00
15384;DHT22;7790;53.022;12.968;2023-07-31T07:16:51;20.80;61.50
15384;DHT22;7790;53.022;12.968;2023-07-31T07:20:53;20.40;65.30
15384;DHT22;7790;53.022;12.968;2023-07-31T07:24:54;20.30;65.60
15384;DHT22;7790;53.022;12.968;2023-07-31T07:28:55;20.10;66.30
15384;DHT22;7790;53.022;12.968;2023-07-31T07:32:56;20.10;66.70
15384;DHT22;7790;53.022;12.968;2023-07-31T07:36:57;20.20;67.60
15384;DHT22;7790;53.022;12.968;2023-07-31T07:40:58;20.10;67.70
15384;DHT22;7790;53.022;12.968;2023-07-31T07:44:59;20.00;68.60
15384;DHT22;7790;53.022;12.968;2023-07-31T07:48:59;20.00;67.80
15384;DHT22;7790;53.022;12.968;2023-07-31T07:53:00;20.10;67.60
15384;DHT22;7790;53.022;12.968;2023-07-31T07:57:01;20.00;67.70
15384;DHT22;7790;53.022;12.968;2023-07-31T08:01:02;20.00;68.20
15384;DHT22;7790;53.022;12.968;2023-07-31T08:05:03;20.10;68.30
15384;DHT22;7790;53.022;12.968;2023-07-31T08:09:04;20.30;68.10
15384;DHT22;7790;53.022;12.968;2023-07-31T08:13:06;20.30;67.80
15384;DHT22;7790;53.022;12.968;2023-07-31T08:17:07;20.40;66.80
15384;DHT22;7790;53.022;12.968;2023-07-31T08:21:08;20.50;65.90
15384;DHT22;7790;53.022;12.968;2023-07-31T08:25:09;20.40;64.70
15384;DHT22;7790;53.022;12.968;2023-07-31T08:29:10;20.30;64.60
15384;DHT22;7790;53.022;12.968;2023-07-31T08:33:11;20.40;65.70
15384;DHT22;7790;53.022;12.968;2023-07-31T08:37:12;20.60;64.40
15384;DHT22;7790;53.022;12.968;2023-07-31T08:41:13;20.70;63.50
15384;DHT22;7790;53.022;12.968;2023-07-31T08:45:15;20.70;63.10
15384;DHT22;7790;53.022;12.968;2023-07-31T08:49:18;20.60;62.50
15384;DHT22;7790;53.022;12.968;2023-07-31T08:53:20;20.50;63.10
15384;DHT22;7790;53.022;12.968;2023-07-31T08:57:21;20.50;63.50
15384;DHT22;7790;53.022;12.968;2023-07-31T09:01:22;20.50;63.30
15384;DHT22;7790;53.022;12.968;2023-07-31T09:05:26;20.60;63.00
15384;DHT22;7790;53.022;12.968;2023-07-31T09:09:28;20.60;63.00
15384;DHT22;7790;53.022;12.968;2023-07-31T09:13:30;20.80;62.70
15384;DHT22;7790;53.022;12.968;2023-07-31T09:17:36;20.90;62.50
15384;DHT22;7790;53.022;12.968;2023-07-31T09:21:47;20.80;62.10
15384;DHT22;7790;53.022;12.968;2023-07-31T09:25:48;20.90;62.70
15384;DHT22;7790;53.022;12.968;2023-07-31T09:29:58;20.90;62.70
15384;DHT22;7790;53.022;12.968;2023-07-31T09:33:59;20.90;62.50
15384;DHT22;7790;53.022;12.968;2023-07-31T09:38:05;21.00;62.60
15384;DHT22;7790;53.022;12.968;2023-07-31T09:42:06;20.90;62.70
15384;DHT22;7790;53.022;12.968;2023-07-31T09:46:13;21.00;62.80
15384;DHT22;7790;53.022;12.968;2023-07-31T09:50:14;21.00;62.20
15384;DHT22;7790;53.022;12.968;2023-07-31T09:54:16;20.90;62.30
15384;DHT22;7790;53.022;12.968;2023-07-31T09:58:17;20.90;63.10
15384;DHT22;7790;53.022;12.968;2023-07-31T10:02:22;20.80;63.10
15384;DHT22;7790;53.022;12.968;2023-07-31T10:06:24;20.70;63.50
15384;DHT22;7790;53.022;12.968;2023-07-31T10:10:26;20.70;64.90
15384;DHT22;7790;53.022;12.968;2023-07-31T10:14:28;20.60;66.20
15384;DHT22;7790;53.022;12.968;2023-07-31T10:18:30;20.70;66.70
15384;DHT22;7790;53.022;12.968;2023-07-31T10:22:31;20.60;67.20
15384;DHT22;7790;53.022;12.968;2023-07-31T10:26:33;20.60;68.10
15384;DHT22;7790;53.022;12.968;2023-07-31T10:30:35;20.60;68.20
15384;DHT22;7790;53.022;12.968;2023-07-31T10:34:39;20.60;67.60
15384;DHT22;7790;53.022;12.968;2023-07-31T10:38:41;20.60;67.60
15384;DHT22;7790;53.022;12.968;2023-07-31T10:42:48;20.50;68.10
15384;DHT22;7790;53.022;12.968;2023-07-31T10:46:49;20.50;69.50
15384;DHT22;7790;53.022;12.968;2023-07-31T10:50:56;20.50;69.70
15384;DHT22;7790;53.022;12.968;2023-07-31T10:55:24;20.40;69.80
15384;DHT22;7790;53.022;12.968;2023-07-31T10:59:34;20.30;70.50
15384;DHT22;7790;53.022;12.968;2023-07-31T11:03:49;20.40;70.00
15384;DHT22;7790;53.022;12.968;2023-07-31T11:07:56;20.40;70.40
15384;DHT22;7790;53.022;12.968;2023-07-31T11:11:57;20.40;70.30
15384;DHT22;7790;53.022;12.968;2023-07-31T11:15:58;20.40;70.90
15384;DHT22;7790;53.022;12.968;2023-07-31T11:19:59;20.40;74.20
15384;DHT22;7790;53.022;12.968;2023-07-31T11:24:00;20.40;74.80
15384;DHT22;7790;53.022;12.968;2023-07-31T11:28:06;20.50;73.40
15384;DHT22;7790;53.022;12.968;2023-07-31T11:32:16;20.60;73.00
15384;DHT22;7790;53.022;12.968;2023-07-31T11:36:19;20.70;71.70
15384;DHT22;7790;53.022;12.968;2023-07-31T11:40:20;20.70;71.70
15384;DHT22;7790;53.022;12.968;2023-07-31T11:44:21;20.70;72.60
15384;DHT22;7790;53.022;12.968;2023-07-31T11:48:26;20.70;74.90
15384;DHT22;7790;53.022;12.968;2023-07-31T11:52:35;20.70;74.40
15384;DHT22;7790;53.022;12.968;2023-07-31T11:56:37;20.80;75.00
15384;DHT22;7790;53.022;12.968;2023-07-31T12:00:38;20.80;74.80
15384;DHT22;7790;53.022;12.968;2023-07-31T12:04:39;20.90;75.00
15384;DHT22;7790;53.022;12.968;2023-07-31T12:08:40;20.90;74.50
15384;DHT22;7790;53.022;12.968;2023-07-31T12:12:41;21.00;74.20
15384;DHT22;7790;53.022;12.968;2023-07-31T12:16:42;20.90;74.40
15384;DHT22;7790;53.022;12.968;2023-07-31T12:20:47;20.80;73.60
15384;DHT22;7790;53.022;12.968;2023-07-31T12:24:49;20.80;73.60
15384;DHT22;7790;53.022;12.968;2023-07-31T12:28:54;20.90;72.50
15384;DHT22;7790;53.022;12.968;2023-07-31T12:32:55;20.70;72.20
15384;DHT22;7790;53.022;12.968;2023-07-31T12:36:56;20.70;72.40
15384;DHT22;7790;53.022;12.968;2023-07-31T12:40:57;20.80;70.80
15384;DHT22;7790;53.022;12.968;2023-07-31T12:44:58;20.90;71.10
15384;DHT22;7790;53.022;12.968;2023-07-31T12:48:59;20.90;70.30
15384;DHT22;7790;53.022;12.968;2023-07-31T12:53:00;20.90;70.10
15384;DHT22;7790;53.022;12.968;2023-07-31T12:57:01;20.80;69.10
15384;DHT22;7790;53.022;12.968;2023-07-31T13:01:02;20.80;68.70
15384;DHT22;7790;53.022;12.968;2023-07-31T13:05:03;20.70;69.10
15384;DHT22;7790;53.022;12.968;2023-07-31T13:09:03;20.70;69.30
15384;DHT22;7790;53.022;12.968;2023-07-31T13:13:05;20.70;70.00
15384;DHT22;7790;53.022;12.968;2023-07-31T13:17:05;20.60;70.50
15384;DHT22;7790;53.022;12.968;2023-07-31T13:21:06;20.50;72.10
15384;DHT22;7790;53.022;12.968;2023-07-31T13:25:08;20.50;74.30
15384;DHT22;7790;53.022;12.968;2023-07-31T13:29:09;20.50;75.90
15384;DHT22;7790;53.022;12.968;2023-07-31T13:33:11;20.40;77.70
15384;DHT22;7790;53.022;12.968;2023-07-31T13:37:13;20.40;77.30
15384;DHT22;7790;53.022;12.968;2023-07-31T13:41:14;20.50;78.40
15384;DHT22;7790;53.022;12.968;2023-07-31T13:45:15;20.50;77.80
15384;DHT22;7790;53.022;12.968;2023-07-31T13:49:16;20.50;76.90
15384;DHT22;7790;53.022;12.968;2023-07-31T13:53:16;20.50;75.90
15384;DHT22;7790;53.022;12.968;2023-07-31T13:57:17;20.50;75.80
15384;DHT22;7790;53.022;12.968;2023-07-31T14:01:19;20.50;75.50
15384;DHT22;7790;53.022;12.968;2023-07-31T14:05:20;20.50;75.80
15384;DHT22;7790;53.022;12.968;2023-07-31T14:09:20;20.60;75.20
15384;DHT22;7790;53.022;12.968;2023-07-31T14:13:22;20.60;75.00
15384;DHT22;7790;53.022;12.968;2023-07-31T14:17:23;20.60;75.20
15384;DHT22;7790;53.022;12.968;2023-07-31T14:21:24;20.60;74.30
15384;DHT22;7790;53.022;12.968;2023-07-31T14:25:25;20.60;74.20
15384;DHT22;7790;53.022;12.968;2023-07-31T14:29:26;20.50;75.50
15384;DHT22;7790;53.022;12.968;2023-07-31T14:33:28;20.50;76.40
15384;DHT22;7790;53.022;12.968;2023-07-31T14:37:37;20.40;77.70
15384;DHT22;7790;53.022;12.968;2023-07-31T14:41:38;20.40;77.10
15384;DHT22;7790;53.022;12.968;2023-07-31T14:45:39;20.40;77.40
15384;DHT22;7790;53.022;12.968;2023-07-31T14:49:40;20.40;77.70
15384;DHT22;7790;53.022;12.968;2023-07-31T14:53:40;20.50;76.90
15384;DHT22;7790;53.022;12.968;2023-07-31T14:57:41;20.40;78.00
15384;DHT22;7790;53.022;12.968;2023-07-31T15:01:42;20.30;78.90
15384;DHT22;7790;53.022;12.968;2023-07-31T15:05:43;20.60;78.10
15384;DHT22;7790;53.022;12.968;2023-07-31T15:09:44;20.80;76.30
15384;DHT22;7790;53.022;12.968;2023-07-31T15:13:45;20.90;74.90
15384;DHT22;7790;53.022;12.968;2023-07-31T15:17:46;21.00;73.70
15384;DHT22;7790;53.022;12.968;2023-07-31T15:21:46;21.10;72.10
15384;DHT22;7790;53.022;12.968;2023-07-31T15:25:47;21.10;71.10
15384;DHT22;7790;53.022;12.968;2023-07-31T15:29:49;21.10;71.30
15384;DHT22;7790;53.022;12.968;2023-07-31T15:33:52;21.20;70.30
15384;DHT22;7790;53.022;12.968;2023-07-31T15:37:53;21.10;69.70
15384;DHT22;7790;53.022;12.968;2023-07-31T15:41:53;21.20;69.90
15384;DHT22;7790;53.022;12.968;2023-07-31T15:45:54;21.10;69.90
15384;DHT22;7790;53.022;12.968;2023-07-31T15:49:56;21.10;69.70
15384;DHT22;7790;53.022;12.968;2023-07-31T15:53:56;21.10;69.90
15384;DHT22;7790;53.022;12.968;2023-07-31T15:57:57;21.20;69.90
15384;DHT22;7790;53.022;12.968;2023-07-31T16:01:58;21.20;69.90
15384;DHT22;7790;53.022;12.968;2023-07-31T16:05:59;21.20;69.80
15384;DHT22;7790;53.022;12.968;2023-07-31T16:10:00;21.20;69.70
15384;DHT22;7790;53.022;12.968;2023-07-31T16:14:01;21.20;69.60
15384;DHT22;7790;53.022;12.968;2023-07-31T16:18:02;21.20;69.70
15384;DHT22;7790;53.022;12.968;2023-07-31T16:22:03;21.30;69.70
15384;DHT22;7790;53.022;12.968;2023-07-31T16:26:04;21.30;69.50
15384;DHT22;7790;53.022;12.968;2023-07-31T16:30:06;21.30;69.70
15384;DHT22;7790;53.022;12.968;2023-07-31T16:34:07;21.20;69.40
15384;DHT22;7790;53.022;12.968;2023-07-31T16:38:07;21.30;69.40
15384;DHT22;7790;53.022;12.968;2023-07-31T16:42:08;21.20;69.30
15384;DHT22;7790;53.022;12.968;2023-07-31T16:46:09;21.20;69.50
15384;DHT22;7790;53.022;12.968;2023-07-31T16:50:10;21.30;69.30
15384;DHT22;7790;53.022;12.968;2023-07-31T16:54:11;21.20;69.60
15384;DHT22;7790;53.022;12.968;2023-07-31T16:58:12;21.20;69.50
15384;DHT22;7790;53.022;12.968;2023-07-31T17:02:13;21.20;69.40
15384;DHT22;7790;53.022;12.968;2023-07-31T17:06:14;21.20;69.30
15384;DHT22;7790;53.022;12.968;2023-07-31T17:10:15;21.20;69.40
15384;DHT22;7790;53.022;12.968;2023-07-31T17:14:16;21.30;69.00
15384;DHT22;7790;53.022;12.968;2023-07-31T17:18:16;21.30;69.40
15384;DHT22;7790;53.022;12.968;2023-07-31T17:22:17;21.30;68.90
15384;DHT22;7790;53.022;12.968;2023-07-31T17:26:18;21.30;69.20
15384;DHT22;7790;53.022;12.968;2023-07-31T17:30:19;21.30;69.10
15384;DHT22;7790;53.022;12.968;2023-07-31T17:34:20;21.30;69.20
15384;DHT22;7790;53.022;12.968;2023-07-31T17:38:21;21.30;69.40
15384;DHT22;7790;53.022;12.968;2023-07-31T17:42:22;21.30;69.30
15384;DHT22;7790;53.022;12.968;2023-07-31T17:46:23;21.30;69.10
15384;DHT22;7790;53.022;12.968;2023-07-31T17:50:24;21.30;69.40
15384;DHT22;7790;53.022;12.968;2023-07-31T17:54:25;21.30;69.40
15384;DHT22;7790;53.022;12.968;2023-07-31T17:58:28;21.30;69.30
15384;DHT22;7790;53.022;12.968;2023-07-31T18:02:29;21.30;69.50
15384;DHT22;7790;53.022;12.968;2023-07-31T18:06:30;21.40;69.50
15384;DHT22;7790;53.022;12.968;2023-07-31T18:10:34;21.40;69.60
15384;DHT22;7790;53.022;12.968;2023-07-31T18:14:36;21.30;69.40
15384;DHT22;7790;53.022;12.968;2023-07-31T18:18:38;21.40;69.30
15384;DHT22;7790;53.022;12.968;2023-07-31T18:22:39;21.40;69.20
15384;DHT22;7790;53.022;12.968;2023-07-31T18:26:40;21.30;69.10
15384;DHT22;7790;53.022;12.968;2023-07-31T18:30:41;21.30;69.20
15384;DHT22;7790;53.022;12.968;2023-07-31T18:34:42;21.30;69.30
15384;DHT22;7790;53.022;12.968;2023-07-31T18:38:42;21.40;69.20
15384;DHT22;7790;53.022;12.968;2023-07-31T18:42:43;21.40;69.20
15384;DHT22;7790;53.022;12.968;2023-07-31T18:46:44;21.40;68.90
15384;DHT22;7790;53.022;12.968;2023-07-31T18:50:45;21.40;68.90
15384;DHT22;7790;53.022;12.968;2023-07-31T18:54:46;21.30;68.80
15384;DHT22;7790;53.022;12.968;2023-07-31T18:58:47;21.30;68.20
15384;DHT22;7790;53.022;12.968;2023-07-31T19:02:51;21.30;69.00
15384;DHT22;7790;53.022;12.968;2023-07-31T19:06:52;21.40;68.90
15384;DHT22;7790;53.022;12.968;2023-07-31T19:10:53;21.30;68.60
15384;DHT22;7790;53.022;12.968;2023-07-31T19:14:54;21.40;68.80
15384;DHT22;7790;53.022;12.968;2023-07-31T19:18:54;21.30;68.80
15384;DHT22;7790;53.022;12.968;2023-07-31T19:22:55;21.30;68.70
15384;DHT22;7790;53.022;12.968;2023-07-31T19:26:56;21.30;68.80
15384;DHT22;7790;53.022;12.968;2023-07-31T19:30:57;21.30;68.60
15384;DHT22;7790;53.022;12.968;2023-07-31T19:34:58;21.30;68.60
15384;DHT22;7790;53.022;12.968;2023-07-31T19:38:59;21.30;68.50
15384;DHT22;7790;53.022;12.968;2023-07-31T19:43:01;21.30;68.40
15384;DHT22;7790;53.022;12.968;2023-07-31T19:47:02;21.30;68.60
15384;DHT22;7790;53.022;12.968;2023-07-31T19:51:03;21.40;68.40
15384;DHT22;7790;53.022;12.968;2023-07-31T19:55:05;21.40;68.30
15384;DHT22;7790;53.022;12.968;2023-07-31T19:59:06;21.30;68.40
15384;DHT22;7790;53.022;12.968;2023-07-31T20:03:07;21.30;68.10
15384;DHT22;7790;53.022;12.968;2023-07-31T20:07:08;21.30;67.90
15384;DHT22;7790;53.022;12.968;2023-07-31T20:11:10;21.40;67.20
15384;DHT22;7790;53.022;12.968;2023-07-31T20:15:20;21.40;68.10
15384;DHT22;7790;53.022;12.968;2023-07-31T20:19:22;21.40;67.60
15384;DHT22;7790;53.022;12.968;2023-07-31T20:23:24;21.50;67.50
15384;DHT22;7790;53.022;12.968;2023-07-31T20:27:24;21.50;67.00
15384;DHT22;7790;53.022;12.968;2023-07-31T20:31:25;21.50;66.70
15384;DHT22;7790;53.022;12.968;2023-07-31T20:35:26;21.50;66.30
15384;DHT22;7790;53.022;12.968;2023-07-31T20:39:27;21.40;66.30
15384;DHT22;7790;53.022;12.968;2023-07-31T20:43:28;21.40;66.50
15384;DHT22;7790;53.022;12.968;2023-07-31T20:47:29;21.30;66.60
15384;DHT22;7790;53.022;12.968;2023-07-31T20:51:31;21.40;66.40
15384;DHT22;7790;53.022;12.968;2023-07-31T20:55:33;21.40;66.40
15384;DHT22;7790;53.022;12.968;2023-07-31T20:59:33;21.40;66.20
15384;DHT22;7790;53.022;12.968;2023-07-31T21:03:34;21.30;66.20
15384;DHT22;7790;53.022;12.968;2023-07-31T21:07:36;21.30;66.00
15384;DHT22;7790;53.022;12.968;2023-07-31T21:11:37;21.30;66.10
15384;DHT22;7790;53.022;12.968;2023-07-31T21:15:39;21.30;65.90
15384;DHT22;7790;53.022;12.968;2023-07-31T21:19:44;21.30;65.90
15384;DHT22;7790;53.022;12.968;2023-07-31T21:23:45;21.20;65.80
15384;DHT22;7790;53.022;12.968;2023-07-31T21:27:46;21.20;65.70
15384;DHT22;7790;53.022;12.968;2023-07-31T21:31:47;21.30;65.70
15384;DHT22;7790;53.022;12.968;2023-07-31T21:35:47;21.30;65.60
15384;DHT22;7790;53.022;12.968;2023-07-31T21:39:48;21.20;65.60
15384;DHT22;7790;53.022;12.968;2023-07-31T21:43:49;21.20;65.50
15384;DHT22;7790;53.022;12.968;2023-07-31T21:47:51;21.20;65.50
15384;DHT22;7790;53.022;12.968;2023-07-31T21:51:52;21.20;65.50
15384;DHT22;7790;53.022;12.968;2023-07-31T21:55:52;21.20;65.40
15384;DHT22;7790;53.022;12.968;2023-07-31T21:59:53;21.20;65.40
15384;DHT22;7790;53.022;12.968;2023-07-31T22:03:55;21.20;65.40
15384;DHT22;7790;53.022;12.968;2023-07-31T22:07:55;21.20;65.30
15384;DHT22;7790;53.022;12.968;2023-07-31T22:11:56;21.20;65.30
15384;DHT22;7790;53.022;12.968;2023-07-31T22:15:57;21.20;65.20
15384;DHT22;7790;53.022;12.968;2023-07-31T22:19:58;21.20;65.20
15384;DHT22;7790;53.022;12.968;2023-07-31T22:23:59;21.20;65.10
15384;DHT22;7790;53.022;12.968;2023-07-31T22:28:00;21.20;65.10
15384;DHT22;7790;53.022;12.968;2023-07-31T22:32:00;21.20;65.00
15384;DHT22;7790;53.022;12.968;2023-07-31T22:36:02;21.20;65.00
15384;DHT22;7790;53.022;12.968;2023-07-31T22:40:03;21.20;65.00
15384;DHT22;7790;53.022;12.968;2023-07-31T22:44:04;21.20;65.10
15384;DHT22;7790;53.022;12.968;2023-07-31T22:48:05;21.20;65.00
15384;DHT22;7790;53.022;12.968;2023-07-31T22:52:06;21.10;65.70
15384;DHT22;7790;53.022;12.968;2023-07-31T22:56:07;21.20;65.00
15384;DHT22;7790;53.022;12.968;2023-07-31T23:00:08;21.20;65.10
15384;DHT22;7790;53.022;12.968;2023-07-31T23:04:10;21.10;65.00
15384;DHT22;7790;53.022;12.968;2023-07-31T23:08:11;21.20;65.00
15384;DHT22;7790;53.022;12.968;2023-07-31T23:12:12;21.20;64.90
15384;DHT22;7790;53.022;12.968;2023-07-31T23:16:13;21.20;64.80
15384;DHT22;7790;53.022;12.968;2023-07-31T23:20:14;21.10;64.80
15384;DHT22;7790;53.022;12.968;2023-07-31T23:24:15;21.20;64.80
15384;DHT22;7790;53.022;12.968;2023-07-31T23:28:17;21.20;64.80
15384;DHT22;7790;53.022;12.968;2023-07-31T23:32:18;21.20;64.80
15384;DHT22;7790;53.022;12.968;2023-07-31T23:36:19;21.10;64.80
15384;DHT22;7790;53.022;12.968;2023-07-31T23:40:20;21.10;64.60
15384;DHT22;7790;53.022;12.968;2023-07-31T23:44:21;21.10;64.60
15384;DHT22;7790;53.022;12.968;2023-07-31T23:48:22;21.10;65.30
15384;DHT22;7790;53.022;12.968;2023-07-31T23:52:23;21.10;64.70
15384;DHT22;7790;53.022;12.968;2023-07-31T23:56:24;21.10;64.60
